Overview Statistics Trail Chart Weather Telemetry Raw packets
 

This is the latest recevied packets stored in our database for station/object DB9VE-12. If no packets are shown the sender has not sent any packets the latest 24 hours.

If you compare the raw packets with similar data from other websites it may differ (especially the path), the reason is that we are not collecting packets from the same APRS-IS servers. Each APRS-IS server performes duplicate filtering, and which packet that is considered to be a duplicate may differ depending on which APRS-IS server you receive your data from.

<< 1 2 3 4 >>

1788572145: DB9VE-12>APRSMC,TCPIP*,qAR,DL4VAC-12::DB9VE-12 :PARM.Press,Temp.in,Hum,QNH,Temp.out,track,-,-,-,-,-,-,-

1788572145: DB9VE-12>APRSMC,TCPIP*,qAR,DL4VAC-12:T#961,976.9,21.7,59.2,1022.1,0.0,00000000

1788572145: DB9VE-12>APRSMC,TCPIP*,qAR,DL4VAC-12::DB9VE-12 :UNIT.hPa,C deg,%,hPa,C deg,Y/N,O/N,O/N,O/N,O/N,O/N,O/N,O/N

1788572145: DB9VE-12>APRSMC,TCPIP*,qAR,DL4VAC-12::DB9VE-12 :EQNS.0,1,0,0,1,0,0,1,0,0,1,0,0,1,0

1788572145: DB9VE-12>APRSMC,TCPIP*,qAR,DL4VAC-12:!4919.21N/00639.37E#JN39HH#DB9VE-12/B=074/A=001194

1788572137: DB9VE-12>APRSGW,TCPIP*,qAR,DB9VE-12:T#547,976.9,21.7,59.2,1022.1,0.0,00000000

1788572137: DB9VE-12>APRSGW,TCPIP*,qAR,DB9VE-12:!4919.21N/00639.37E#JN39HH#DB9VE-12/B=074/A=001194

1788570333: DB9VE-12>APRSMC,TCPIP*,qAR,DH7VG-12:T#960,976.8,22.0,59.2,1022.0,0.0,00000000

1788570333: DB9VE-12>APRSMC,TCPIP*,qAR,DH7VG-12:!4919.21N/00639.38E#JN39HH#DB9VE-12/B=078/A=001204

1788570322: DB9VE-12>APRSGW,TCPIP*,qAR,DB9VE-12:T#546,976.8,22.0,59.2,1022.0,0.0,00000000

1788570322: DB9VE-12>APRSGW,TCPIP*,qAR,DB9VE-12:!4919.21N/00639.38E#JN39HH#DB9VE-12/B=078/A=001204

1788568507: DB9VE-12>APRSGW,TCPIP*,qAR,DB9VE-12:T#545,977.1,21.9,60.0,1022.2,0.0,00000000

1788568507: DB9VE-12>APRSGW,TCPIP*,qAR,DB9VE-12:!4919.21N/00639.37E#JN39HH#DB9VE-12/B=081/A=001211

1788566704: DB9VE-12>APRSMC,TCPIP*,qAR,DH7VG-12:T#959,976.6,22.0,60.7,1021.7,0.0,00000000

1788566704: DB9VE-12>APRSMC,TCPIP*,qAR,DH7VG-12:!4919.21N/00639.38E#JN39HH#DB9VE-12/B=085/A=001240

1788566692: DB9VE-12>APRSGW,TCPIP*,qAR,DB9VE-12:T#544,976.6,22.0,60.7,1021.7,0.0,00000000

1788566692: DB9VE-12>APRSGW,TCPIP*,qAR,DB9VE-12:!4919.21N/00639.38E#JN39HH#DB9VE-12/B=085/A=001240

1788564885: DB9VE-12>APRSMC,TCPIP*,qAR,DH7VG-12:T#958,976.3,22.0,60.9,1021.5,0.0,00000000

1788564885: DB9VE-12>APRSMC,TCPIP*,qAR,DH7VG-12:!4919.21N/00639.38E#JN39HH#DB9VE-12/B=087/A=001175

1788564877: DB9VE-12>APRSGW,TCPIP*,qAR,DB9VE-12:T#543,976.3,22.0,60.9,1021.5,0.0,00000000

1788564877: DB9VE-12>APRSGW,TCPIP*,qAR,DB9VE-12:!4919.21N/00639.38E#JN39HH#DB9VE-12/B=087/A=001175

1788563062: DB9VE-12>APRSGW,TCPIP*,qAR,DB9VE-12:T#542,976.2,22.1,61.0,1021.2,0.0,00000000

1788563062: DB9VE-12>APRSGW,TCPIP*,qAR,DB9VE-12:!4919.21N/00639.38E#JN39HH#DB9VE-12/B=088/A=001243

1788561264: DB9VE-12>APRSMC,TCPIP*,qAR,DL4VAC-12:T#957,975.9,21.9,61.8,1021.0,0.0,00000000

1788561264: DB9VE-12>APRSMC,TCPIP*,qAR,DL4VAC-12:!4919.21N/00639.38E#JN39HH#DB9VE-12/B=092/A=001201